sensor_id;sensor_type;location;lat;lon;timestamp;temperature;humidity
31455;DHT22;18084;53.028;8.834;2022-12-07T00:00:55;4.10;99.90
31455;DHT22;18084;53.028;8.834;2022-12-07T00:03:29;4.10;99.90
31455;DHT22;18084;53.028;8.834;2022-12-07T00:05:57;4.00;99.90
31455;DHT22;18084;53.028;8.834;2022-12-07T00:08:22;4.00;99.90
31455;DHT22;18084;53.028;8.834;2022-12-07T00:10:48;4.30;99.90
31455;DHT22;18084;53.028;8.834;2022-12-07T00:13:13;3.90;99.90
31455;DHT22;18084;53.028;8.834;2022-12-07T00:15:39;3.80;99.90
31455;DHT22;18084;53.028;8.834;2022-12-07T00:18:04;3.80;99.90
31455;DHT22;18084;53.028;8.834;2022-12-07T00:20:30;3.70;99.90
31455;DHT22;18084;53.028;8.834;2022-12-07T00:22:56;3.70;99.90
31455;DHT22;18084;53.028;8.834;2022-12-07T00:25:22;3.80;99.90
31455;DHT22;18084;53.028;8.834;2022-12-07T00:27:47;3.80;99.90
31455;DHT22;18084;53.028;8.834;2022-12-07T00:30:13;3.70;99.90
31455;DHT22;18084;53.028;8.834;2022-12-07T00:32:38;3.70;99.90
31455;DHT22;18084;53.028;8.834;2022-12-07T00:35:04;3.60;99.90
31455;DHT22;18084;53.028;8.834;2022-12-07T00:37:30;3.60;99.90
31455;DHT22;18084;53.028;8.834;2022-12-07T00:39:55;3.60;99.90
31455;DHT22;18084;53.028;8.834;2022-12-07T00:42:21;3.60;99.90
31455;DHT22;18084;53.028;8.834;2022-12-07T00:44:46;3.50;99.90
31455;DHT22;18084;53.028;8.834;2022-12-07T00:47:12;3.60;99.90
31455;DHT22;18084;53.028;8.834;2022-12-07T00:49:38;3.50;99.90
31455;DHT22;18084;53.028;8.834;2022-12-07T00:52:03;3.50;99.90
31455;DHT22;18084;53.028;8.834;2022-12-07T00:54:29;3.60;99.90
31455;DHT22;18084;53.028;8.834;2022-12-07T00:56:54;3.60;99.90
31455;DHT22;18084;53.028;8.834;2022-12-07T00:59:20;3.60;99.90
31455;DHT22;18084;53.028;8.834;2022-12-07T01:01:45;3.70;99.90
31455;DHT22;18084;53.028;8.834;2022-12-07T01:04:11;3.60;99.90
31455;DHT22;18084;53.028;8.834;2022-12-07T01:06:37;3.70;99.90
31455;DHT22;18084;53.028;8.834;2022-12-07T01:09:03;3.70;99.90
31455;DHT22;18084;53.028;8.834;2022-12-07T01:11:30;3.60;99.90
31455;DHT22;18084;53.028;8.834;2022-12-07T01:13:58;3.60;99.90
31455;DHT22;18084;53.028;8.834;2022-12-07T01:16:27;3.60;99.90
31455;DHT22;18084;53.028;8.834;2022-12-07T01:18:54;3.70;99.90
31455;DHT22;18084;53.028;8.834;2022-12-07T01:21:23;3.50;99.90
31455;DHT22;18084;53.028;8.834;2022-12-07T01:23:49;3.50;99.90
31455;DHT22;18084;53.028;8.834;2022-12-07T07:20:14;2.80;99.90
31455;DHT22;18084;53.028;8.834;2022-12-07T07:22:39;2.80;99.90
31455;DHT22;18084;53.028;8.834;2022-12-07T07:25:05;2.80;99.90
31455;DHT22;18084;53.028;8.834;2022-12-07T07:27:31;2.80;99.90
31455;DHT22;18084;53.028;8.834;2022-12-07T07:29:56;2.80;99.90
31455;DHT22;18084;53.028;8.834;2022-12-07T07:32:22;2.80;99.90
31455;DHT22;18084;53.028;8.834;2022-12-07T07:34:47;2.80;99.90
31455;DHT22;18084;53.028;8.834;2022-12-07T07:37:13;2.80;99.90
31455;DHT22;18084;53.028;8.834;2022-12-07T07:39:39;2.80;99.90
31455;DHT22;18084;53.028;8.834;2022-12-07T07:42:04;2.80;99.90
31455;DHT22;18084;53.028;8.834;2022-12-07T07:44:30;2.80;99.90
31455;DHT22;18084;53.028;8.834;2022-12-07T07:46:56;2.80;99.90
31455;DHT22;18084;53.028;8.834;2022-12-07T07:49:21;2.80;99.90
31455;DHT22;18084;53.028;8.834;2022-12-07T07:51:47;2.80;99.90
31455;DHT22;18084;53.028;8.834;2022-12-07T07:54:12;2.80;99.90
31455;DHT22;18084;53.028;8.834;2022-12-07T07:56:38;2.70;99.90
31455;DHT22;18084;53.028;8.834;2022-12-07T07:59:04;2.80;99.90
31455;DHT22;18084;53.028;8.834;2022-12-07T08:01:29;2.70;99.90
31455;DHT22;18084;53.028;8.834;2022-12-07T08:03:55;2.80;99.90
31455;DHT22;18084;53.028;8.834;2022-12-07T08:06:20;2.80;99.90
31455;DHT22;18084;53.028;8.834;2022-12-07T08:08:46;2.90;99.90
31455;DHT22;18084;53.028;8.834;2022-12-07T08:11:11;2.90;99.90
31455;DHT22;18084;53.028;8.834;2022-12-07T08:13:37;2.90;99.90
31455;DHT22;18084;53.028;8.834;2022-12-07T08:16:07;3.00;99.90
31455;DHT22;18084;53.028;8.834;2022-12-07T08:18:40;2.90;99.90
31455;DHT22;18084;53.028;8.834;2022-12-07T08:21:08;3.00;99.90
31455;DHT22;18084;53.028;8.834;2022-12-07T08:23:34;2.90;99.90
31455;DHT22;18084;53.028;8.834;2022-12-07T08:26:01;3.00;99.90
31455;DHT22;18084;53.028;8.834;2022-12-07T08:28:28;3.00;99.90
31455;DHT22;18084;53.028;8.834;2022-12-07T08:30:59;3.00;99.90
31455;DHT22;18084;53.028;8.834;2022-12-07T08:33:25;3.00;99.90
31455;DHT22;18084;53.028;8.834;2022-12-07T08:35:51;3.10;99.90
31455;DHT22;18084;53.028;8.834;2022-12-07T08:38:16;3.10;99.90
31455;DHT22;18084;53.028;8.834;2022-12-07T08:40:42;3.10;99.90
31455;DHT22;18084;53.028;8.834;2022-12-07T08:43:07;3.10;99.90
31455;DHT22;18084;53.028;8.834;2022-12-07T08:45:33;3.20;99.90
31455;DHT22;18084;53.028;8.834;2022-12-07T08:48:07;3.20;99.90
31455;DHT22;18084;53.028;8.834;2022-12-07T08:50:36;3.20;99.90
31455;DHT22;18084;53.028;8.834;2022-12-07T08:53:03;3.20;99.90
31455;DHT22;18084;53.028;8.834;2022-12-07T08:55:30;3.30;99.90
31455;DHT22;18084;53.028;8.834;2022-12-07T08:57:58;3.30;99.90
31455;DHT22;18084;53.028;8.834;2022-12-07T09:00:24;3.30;99.90
31455;DHT22;18084;53.028;8.834;2022-12-07T09:02:49;3.30;99.90
31455;DHT22;18084;53.028;8.834;2022-12-07T09:05:15;3.40;99.90
31455;DHT22;18084;53.028;8.834;2022-12-07T09:07:46;3.40;99.90
31455;DHT22;18084;53.028;8.834;2022-12-07T09:10:14;3.50;99.90
31455;DHT22;18084;53.028;8.834;2022-12-07T09:12:40;3.50;99.90
31455;DHT22;18084;53.028;8.834;2022-12-07T09:15:06;3.50;99.90
31455;DHT22;18084;53.028;8.834;2022-12-07T09:17:32;3.60;99.90
31455;DHT22;18084;53.028;8.834;2022-12-07T09:19:58;3.50;99.90
31455;DHT22;18084;53.028;8.834;2022-12-07T09:22:28;3.60;99.90
31455;DHT22;18084;53.028;8.834;2022-12-07T09:24:54;3.50;99.90
31455;DHT22;18084;53.028;8.834;2022-12-07T09:27:20;3.50;99.90
31455;DHT22;18084;53.028;8.834;2022-12-07T09:29:45;3.60;99.90
31455;DHT22;18084;53.028;8.834;2022-12-07T09:32:11;3.60;99.90
31455;DHT22;18084;53.028;8.834;2022-12-07T09:34:36;3.70;99.90
31455;DHT22;18084;53.028;8.834;2022-12-07T09:37:02;3.70;99.90
31455;DHT22;18084;53.028;8.834;2022-12-07T09:39:28;3.80;99.90
31455;DHT22;18084;53.028;8.834;2022-12-07T09:41:54;3.90;99.90
31455;DHT22;18084;53.028;8.834;2022-12-07T09:44:26;4.00;99.90
31455;DHT22;18084;53.028;8.834;2022-12-07T09:46:52;4.20;99.90
31455;DHT22;18084;53.028;8.834;2022-12-07T09:49:21;4.40;99.90
31455;DHT22;18084;53.028;8.834;2022-12-07T09:51:47;4.60;99.90
31455;DHT22;18084;53.028;8.834;2022-12-07T09:54:15;4.50;99.90
31455;DHT22;18084;53.028;8.834;2022-12-07T09:56:42;4.60;99.90
31455;DHT22;18084;53.028;8.834;2022-12-07T09:59:17;4.60;99.90
31455;DHT22;18084;53.028;8.834;2022-12-07T10:01:45;4.40;99.90
31455;DHT22;18084;53.028;8.834;2022-12-07T10:04:35;4.20;99.90
31455;DHT22;18084;53.028;8.834;2022-12-07T10:07:00;4.00;99.90
31455;DHT22;18084;53.028;8.834;2022-12-07T10:09:25;3.90;99.90
31455;DHT22;18084;53.028;8.834;2022-12-07T10:12:11;4.40;99.90
31455;DHT22;18084;53.028;8.834;2022-12-07T10:14:48;5.10;99.90
31455;DHT22;18084;53.028;8.834;2022-12-07T10:17:29;5.10;99.90
31455;DHT22;18084;53.028;8.834;2022-12-07T10:22:37;4.70;99.90
31455;DHT22;18084;53.028;8.834;2022-12-07T10:25:19;4.50;99.90
31455;DHT22;18084;53.028;8.834;2022-12-07T10:28:39;4.50;99.90
31455;DHT22;18084;53.028;8.834;2022-12-07T10:31:00;4.40;99.90
31455;DHT22;18084;53.028;8.834;2022-12-07T10:33:35;4.30;99.90
31455;DHT22;18084;53.028;8.834;2022-12-07T10:36:25;4.30;99.90
31455;DHT22;18084;53.028;8.834;2022-12-07T10:39:15;4.30;99.90
31455;DHT22;18084;53.028;8.834;2022-12-07T10:44:22;4.30;99.90
31455;DHT22;18084;53.028;8.834;2022-12-07T10:52:19;4.30;99.90
31455;DHT22;18084;53.028;8.834;2022-12-07T10:54:57;4.30;99.90
31455;DHT22;18084;53.028;8.834;2022-12-07T10:57:44;4.30;99.90
31455;DHT22;18084;53.028;8.834;2022-12-07T11:00:23;4.40;99.90
31455;DHT22;18084;53.028;8.834;2022-12-07T11:02:58;4.30;99.90
31455;DHT22;18084;53.028;8.834;2022-12-07T11:05:45;4.40;99.90
31455;DHT22;18084;53.028;8.834;2022-12-07T11:10:54;4.40;99.90
31455;DHT22;18084;53.028;8.834;2022-12-07T11:13:29;4.40;99.90
31455;DHT22;18084;53.028;8.834;2022-12-07T11:16:36;4.40;99.90
31455;DHT22;18084;53.028;8.834;2022-12-07T11:22:06;4.50;99.90
31455;DHT22;18084;53.028;8.834;2022-12-07T11:27:25;4.70;99.90
31455;DHT22;18084;53.028;8.834;2022-12-07T11:29:58;4.80;99.90
31455;DHT22;18084;53.028;8.834;2022-12-07T11:35:34;4.90;99.90
31455;DHT22;18084;53.028;8.834;2022-12-07T11:38:14;5.00;99.90
31455;DHT22;18084;53.028;8.834;2022-12-07T11:40:45;5.00;99.90
31455;DHT22;18084;53.028;8.834;2022-12-07T11:43:31;4.90;99.90
31455;DHT22;18084;53.028;8.834;2022-12-07T11:46:13;4.90;99.90
31455;DHT22;18084;53.028;8.834;2022-12-07T11:48:52;4.90;99.90
31455;DHT22;18084;53.028;8.834;2022-12-07T11:51:21;5.00;99.90
31455;DHT22;18084;53.028;8.834;2022-12-07T11:53:52;5.00;99.90
31455;DHT22;18084;53.028;8.834;2022-12-07T11:56:23;5.20;99.90
31455;DHT22;18084;53.028;8.834;2022-12-07T12:04:13;5.40;99.90
31455;DHT22;18084;53.028;8.834;2022-12-07T12:06:44;5.40;99.90
31455;DHT22;18084;53.028;8.834;2022-12-07T12:09:16;5.40;99.90
31455;DHT22;18084;53.028;8.834;2022-12-07T12:15:23;5.60;99.90
31455;DHT22;18084;53.028;8.834;2022-12-07T12:18:35;5.60;99.90
31455;DHT22;18084;53.028;8.834;2022-12-07T12:21:21;5.80;99.90
31455;DHT22;18084;53.028;8.834;2022-12-07T12:24:12;5.90;99.90
31455;DHT22;18084;53.028;8.834;2022-12-07T12:26:52;5.90;99.90
31455;DHT22;18084;53.028;8.834;2022-12-07T12:29:33;5.90;99.90
31455;DHT22;18084;53.028;8.834;2022-12-07T12:32:21;6.00;99.90
31455;DHT22;18084;53.028;8.834;2022-12-07T12:42:49;5.80;99.90
31455;DHT22;18084;53.028;8.834;2022-12-07T12:45:22;5.90;99.90
31455;DHT22;18084;53.028;8.834;2022-12-07T12:50:19;5.80;99.90
31455;DHT22;18084;53.028;8.834;2022-12-07T12:52:56;5.80;99.90
31455;DHT22;18084;53.028;8.834;2022-12-07T12:55:54;5.70;99.90
31455;DHT22;18084;53.028;8.834;2022-12-07T12:58:30;5.60;99.90
31455;DHT22;18084;53.028;8.834;2022-12-07T13:04:47;5.50;99.90
31455;DHT22;18084;53.028;8.834;2022-12-07T13:10:43;5.40;99.90
31455;DHT22;18084;53.028;8.834;2022-12-07T13:15:44;5.10;99.90
31455;DHT22;18084;53.028;8.834;2022-12-07T13:21:01;4.90;99.90
31455;DHT22;18084;53.028;8.834;2022-12-07T13:23:36;4.80;99.90
31455;DHT22;18084;53.028;8.834;2022-12-07T13:26:26;4.90;99.90
31455;DHT22;18084;53.028;8.834;2022-12-07T13:41:59;5.00;99.90
31455;DHT22;18084;53.028;8.834;2022-12-07T13:44:34;5.00;99.90
31455;DHT22;18084;53.028;8.834;2022-12-07T13:47:17;5.00;99.90
31455;DHT22;18084;53.028;8.834;2022-12-07T13:50:20;5.00;99.90
31455;DHT22;18084;53.028;8.834;2022-12-07T13:52:47;5.00;99.90
31455;DHT22;18084;53.028;8.834;2022-12-07T13:55:16;5.00;99.90
31455;DHT22;18084;53.028;8.834;2022-12-07T13:57:44;5.00;99.90
31455;DHT22;18084;53.028;8.834;2022-12-07T14:00:19;5.00;99.90
31455;DHT22;18084;53.028;8.834;2022-12-07T14:02:57;4.90;99.90
31455;DHT22;18084;53.028;8.834;2022-12-07T14:05:31;4.80;99.90
31455;DHT22;18084;53.028;8.834;2022-12-07T14:08:21;4.70;99.90
31455;DHT22;18084;53.028;8.834;2022-12-07T14:16:04;4.50;99.90
31455;DHT22;18084;53.028;8.834;2022-12-07T14:18:38;4.40;99.90
31455;DHT22;18084;53.028;8.834;2022-12-07T14:21:06;4.40;99.90
31455;DHT22;18084;53.028;8.834;2022-12-07T14:23:40;4.30;99.90
31455;DHT22;18084;53.028;8.834;2022-12-07T14:26:14;4.30;99.90
31455;DHT22;18084;53.028;8.834;2022-12-07T14:28:41;4.30;99.90
31455;DHT22;18084;53.028;8.834;2022-12-07T14:31:26;4.20;99.90
31455;DHT22;18084;53.028;8.834;2022-12-07T14:33:51;4.30;99.90
31455;DHT22;18084;53.028;8.834;2022-12-07T14:36:17;4.30;99.90
31455;DHT22;18084;53.028;8.834;2022-12-07T14:38:42;4.20;99.90
31455;DHT22;18084;53.028;8.834;2022-12-07T14:41:15;4.10;99.90
31455;DHT22;18084;53.028;8.834;2022-12-07T14:44:01;4.10;99.90
31455;DHT22;18084;53.028;8.834;2022-12-07T14:46:27;4.00;99.90
31455;DHT22;18084;53.028;8.834;2022-12-07T14:48:52;4.00;99.90
31455;DHT22;18084;53.028;8.834;2022-12-07T14:51:18;4.00;99.90
31455;DHT22;18084;53.028;8.834;2022-12-07T14:53:44;4.00;99.90
31455;DHT22;18084;53.028;8.834;2022-12-07T14:56:11;4.00;99.90
31455;DHT22;18084;53.028;8.834;2022-12-07T14:58:36;3.90;99.90
31455;DHT22;18084;53.028;8.834;2022-12-07T15:01:02;3.90;99.90
31455;DHT22;18084;53.028;8.834;2022-12-07T15:03:29;3.90;99.90
31455;DHT22;18084;53.028;8.834;2022-12-07T15:05:55;3.90;99.90
31455;DHT22;18084;53.028;8.834;2022-12-07T15:08:20;3.80;99.90
31455;DHT22;18084;53.028;8.834;2022-12-07T15:10:46;3.80;99.90
31455;DHT22;18084;53.028;8.834;2022-12-07T15:13:11;3.80;99.90
31455;DHT22;18084;53.028;8.834;2022-12-07T15:15:56;3.80;99.90
31455;DHT22;18084;53.028;8.834;2022-12-07T15:18:23;3.80;99.90
31455;DHT22;18084;53.028;8.834;2022-12-07T15:20:49;3.70;99.90
31455;DHT22;18084;53.028;8.834;2022-12-07T15:23:15;3.70;99.90
31455;DHT22;18084;53.028;8.834;2022-12-07T15:25:41;3.60;99.90
31455;DHT22;18084;53.028;8.834;2022-12-07T15:28:07;3.60;99.90
31455;DHT22;18084;53.028;8.834;2022-12-07T15:30:32;3.50;99.90
31455;DHT22;18084;53.028;8.834;2022-12-07T15:32:57;3.40;99.90
31455;DHT22;18084;53.028;8.834;2022-12-07T15:35:23;3.40;99.90
31455;DHT22;18084;53.028;8.834;2022-12-07T15:37:49;3.40;99.90
31455;DHT22;18084;53.028;8.834;2022-12-07T15:40:14;3.30;99.90
31455;DHT22;18084;53.028;8.834;2022-12-07T15:42:40;3.30;99.90
31455;DHT22;18084;53.028;8.834;2022-12-07T15:45:06;3.20;99.90
31455;DHT22;18084;53.028;8.834;2022-12-07T15:47:37;3.20;99.90
31455;DHT22;18084;53.028;8.834;2022-12-07T15:50:06;3.10;99.90
31455;DHT22;18084;53.028;8.834;2022-12-07T15:52:32;3.10;99.90
31455;DHT22;18084;53.028;8.834;2022-12-07T15:54:58;3.00;99.90
31455;DHT22;18084;53.028;8.834;2022-12-07T15:57:26;3.00;99.90
31455;DHT22;18084;53.028;8.834;2022-12-07T15:59:51;2.90;99.90
31455;DHT22;18084;53.028;8.834;2022-12-07T16:02:17;2.90;99.90
31455;DHT22;18084;53.028;8.834;2022-12-07T16:04:43;2.80;99.90
31455;DHT22;18084;53.028;8.834;2022-12-07T16:07:08;2.80;99.90
31455;DHT22;18084;53.028;8.834;2022-12-07T16:09:34;2.70;99.90
31455;DHT22;18084;53.028;8.834;2022-12-07T16:11:59;2.60;99.90
31455;DHT22;18084;53.028;8.834;2022-12-07T16:14:25;2.60;99.90
31455;DHT22;18084;53.028;8.834;2022-12-07T16:16:50;2.60;99.90
31455;DHT22;18084;53.028;8.834;2022-12-07T16:19:16;2.50;99.90
31455;DHT22;18084;53.028;8.834;2022-12-07T16:21:42;2.50;99.90
31455;DHT22;18084;53.028;8.834;2022-12-07T16:24:07;2.40;99.90
31455;DHT22;18084;53.028;8.834;2022-12-07T16:26:33;2.40;99.90
31455;DHT22;18084;53.028;8.834;2022-12-07T16:28:58;2.40;99.90
31455;DHT22;18084;53.028;8.834;2022-12-07T16:31:26;2.30;99.90
31455;DHT22;18084;53.028;8.834;2022-12-07T16:33:57;2.30;99.90
31455;DHT22;18084;53.028;8.834;2022-12-07T16:36:23;2.30;99.90
31455;DHT22;18084;53.028;8.834;2022-12-07T16:38:50;2.20;99.90
31455;DHT22;18084;53.028;8.834;2022-12-07T16:41:16;2.20;99.90
31455;DHT22;18084;53.028;8.834;2022-12-07T16:43:42;2.20;99.90
31455;DHT22;18084;53.028;8.834;2022-12-07T16:46:07;2.30;99.90
31455;DHT22;18084;53.028;8.834;2022-12-07T16:48:37;2.40;99.90
31455;DHT22;18084;53.028;8.834;2022-12-07T16:51:04;2.40;99.90
31455;DHT22;18084;53.028;8.834;2022-12-07T16:53:30;2.50;99.90
31455;DHT22;18084;53.028;8.834;2022-12-07T16:55:56;2.50;99.90
31455;DHT22;18084;53.028;8.834;2022-12-07T16:58:21;2.50;99.90
31455;DHT22;18084;53.028;8.834;2022-12-07T17:00:47;2.50;99.90
31455;DHT22;18084;53.028;8.834;2022-12-07T17:03:13;2.60;99.90
31455;DHT22;18084;53.028;8.834;2022-12-07T17:05:42;2.70;99.90
31455;DHT22;18084;53.028;8.834;2022-12-07T17:08:09;2.70;99.90
31455;DHT22;18084;53.028;8.834;2022-12-07T17:10:37;2.70;99.90
31455;DHT22;18084;53.028;8.834;2022-12-07T17:13:03;2.70;99.90
31455;DHT22;18084;53.028;8.834;2022-12-07T17:15:56;2.70;99.90
31455;DHT22;18084;53.028;8.834;2022-12-07T17:18:22;2.60;99.90
31455;DHT22;18084;53.028;8.834;2022-12-07T17:20:47;2.60;99.90
31455;DHT22;18084;53.028;8.834;2022-12-07T17:23:13;2.50;99.90
31455;DHT22;18084;53.028;8.834;2022-12-07T17:25:38;2.60;99.90
31455;DHT22;18084;53.028;8.834;2022-12-07T17:28:04;2.60;99.90
31455;DHT22;18084;53.028;8.834;2022-12-07T17:30:29;2.60;99.90
31455;DHT22;18084;53.028;8.834;2022-12-07T17:32:58;3.50;99.90
31455;DHT22;18084;53.028;8.834;2022-12-07T17:35:24;2.60;99.90
31455;DHT22;18084;53.028;8.834;2022-12-07T17:37:49;2.60;99.90
31455;DHT22;18084;53.028;8.834;2022-12-07T17:40:15;2.60;99.90
31455;DHT22;18084;53.028;8.834;2022-12-07T17:42:40;2.60;99.90
31455;DHT22;18084;53.028;8.834;2022-12-07T17:45:10;2.60;99.90
31455;DHT22;18084;53.028;8.834;2022-12-07T17:47:37;2.60;99.90
31455;DHT22;18084;53.028;8.834;2022-12-07T17:50:04;2.70;99.90
31455;DHT22;18084;53.028;8.834;2022-12-07T17:52:30;2.60;99.90
31455;DHT22;18084;53.028;8.834;2022-12-07T17:55:15;2.70;99.90
31455;DHT22;18084;53.028;8.834;2022-12-07T17:57:40;2.70;99.90
31455;DHT22;18084;53.028;8.834;2022-12-07T18:00:06;2.70;99.90
31455;DHT22;18084;53.028;8.834;2022-12-07T18:02:33;2.70;99.90
31455;DHT22;18084;53.028;8.834;2022-12-07T18:04:58;2.70;99.90
31455;DHT22;18084;53.028;8.834;2022-12-07T18:07:24;2.70;99.90
31455;DHT22;18084;53.028;8.834;2022-12-07T18:09:49;2.70;99.90
31455;DHT22;18084;53.028;8.834;2022-12-07T18:12:15;2.70;99.90
31455;DHT22;18084;53.028;8.834;2022-12-07T18:14:40;2.70;99.90
31455;DHT22;18084;53.028;8.834;2022-12-07T18:17:06;2.70;99.90
31455;DHT22;18084;53.028;8.834;2022-12-07T18:19:31;2.60;99.90
31455;DHT22;18084;53.028;8.834;2022-12-07T18:22:04;2.60;99.90
31455;DHT22;18084;53.028;8.834;2022-12-07T18:24:29;2.60;99.90
31455;DHT22;18084;53.028;8.834;2022-12-07T18:26:55;2.50;99.90
31455;DHT22;18084;53.028;8.834;2022-12-07T18:29:20;2.50;99.90
31455;DHT22;18084;53.028;8.834;2022-12-07T18:31:46;2.50;99.90
31455;DHT22;18084;53.028;8.834;2022-12-07T18:34:15;2.50;99.90
31455;DHT22;18084;53.028;8.834;2022-12-07T18:36:43;2.50;99.90
31455;DHT22;18084;53.028;8.834;2022-12-07T18:39:13;2.50;99.90
31455;DHT22;18084;53.028;8.834;2022-12-07T18:41:40;2.50;99.90
31455;DHT22;18084;53.028;8.834;2022-12-07T18:44:09;2.50;99.90
31455;DHT22;18084;53.028;8.834;2022-12-07T18:46:37;2.50;99.90
31455;DHT22;18084;53.028;8.834;2022-12-07T18:49:04;2.50;99.90
31455;DHT22;18084;53.028;8.834;2022-12-07T18:51:30;2.50;99.90
31455;DHT22;18084;53.028;8.834;2022-12-07T18:53:56;2.50;99.90
31455;DHT22;18084;53.028;8.834;2022-12-07T18:56:23;2.50;99.90
31455;DHT22;18084;53.028;8.834;2022-12-07T18:59:11;2.50;99.90
31455;DHT22;18084;53.028;8.834;2022-12-07T19:01:56;2.40;99.90
31455;DHT22;18084;53.028;8.834;2022-12-07T19:04:22;2.40;99.90
31455;DHT22;18084;53.028;8.834;2022-12-07T19:06:47;2.40;99.90
31455;DHT22;18084;53.028;8.834;2022-12-07T19:09:13;2.40;99.90
31455;DHT22;18084;53.028;8.834;2022-12-07T19:11:39;2.40;99.90
31455;DHT22;18084;53.028;8.834;2022-12-07T19:14:17;2.40;99.90
31455;DHT22;18084;53.028;8.834;2022-12-07T19:16:43;2.40;99.90
31455;DHT22;18084;53.028;8.834;2022-12-07T19:19:09;2.30;99.90
31455;DHT22;18084;53.028;8.834;2022-12-07T19:21:34;2.40;99.90
31455;DHT22;18084;53.028;8.834;2022-12-07T19:24:04;2.40;99.90
31455;DHT22;18084;53.028;8.834;2022-12-07T19:26:29;2.40;99.90
31455;DHT22;18084;53.028;8.834;2022-12-07T19:28:55;2.40;99.90
31455;DHT22;18084;53.028;8.834;2022-12-07T19:31:20;2.40;99.90
31455;DHT22;18084;53.028;8.834;2022-12-07T19:33:46;2.40;99.90
31455;DHT22;18084;53.028;8.834;2022-12-07T19:36:12;2.30;99.90
31455;DHT22;18084;53.028;8.834;2022-12-07T19:38:37;2.40;99.90
31455;DHT22;18084;53.028;8.834;2022-12-07T19:41:09;2.40;99.90
31455;DHT22;18084;53.028;8.834;2022-12-07T19:43:56;2.40;99.90
31455;DHT22;18084;53.028;8.834;2022-12-07T19:46:22;2.40;99.90
31455;DHT22;18084;53.028;8.834;2022-12-07T19:48:48;2.40;99.90
31455;DHT22;18084;53.028;8.834;2022-12-07T19:51:13;2.30;99.90
31455;DHT22;18084;53.028;8.834;2022-12-07T20:03:53;2.30;99.90
31455;DHT22;18084;53.028;8.834;2022-12-07T20:06:19;2.30;99.90
31455;DHT22;18084;53.028;8.834;2022-12-07T20:08:45;2.30;99.90
31455;DHT22;18084;53.028;8.834;2022-12-07T20:11:13;2.30;99.90
31455;DHT22;18084;53.028;8.834;2022-12-07T20:13:57;2.00;99.90
31455;DHT22;18084;53.028;8.834;2022-12-07T20:16:24;2.40;99.90
31455;DHT22;18084;53.028;8.834;2022-12-07T20:18:50;2.00;99.90
31455;DHT22;18084;53.028;8.834;2022-12-07T20:21:16;2.20;99.90
31455;DHT22;18084;53.028;8.834;2022-12-07T20:23:41;3.50;99.90
31455;DHT22;18084;53.028;8.834;2022-12-07T20:26:08;3.40;99.90
31455;DHT22;18084;53.028;8.834;2022-12-07T20:28:34;2.80;99.90
31455;DHT22;18084;53.028;8.834;2022-12-07T20:31:00;2.20;99.90
31455;DHT22;18084;53.028;8.834;2022-12-07T20:33:26;3.20;99.90
31455;DHT22;18084;53.028;8.834;2022-12-07T20:36:01;2.20;99.90
31455;DHT22;18084;53.028;8.834;2022-12-07T20:38:28;2.20;99.90
31455;DHT22;18084;53.028;8.834;2022-12-07T20:40:59;2.20;99.90
31455;DHT22;18084;53.028;8.834;2022-12-07T20:43:25;2.20;99.90
31455;DHT22;18084;53.028;8.834;2022-12-07T20:45:50;2.20;99.90
31455;DHT22;18084;53.028;8.834;2022-12-07T20:48:16;1.90;99.90
31455;DHT22;18084;53.028;8.834;2022-12-07T20:50:42;2.20;99.90
31455;DHT22;18084;53.028;8.834;2022-12-07T20:53:08;2.20;99.90
31455;DHT22;18084;53.028;8.834;2022-12-07T20:55:34;5.00;99.90
31455;DHT22;18084;53.028;8.834;2022-12-07T20:58:00;2.20;99.90
31455;DHT22;18084;53.028;8.834;2022-12-07T21:00:26;2.20;99.90
31455;DHT22;18084;53.028;8.834;2022-12-07T21:02:51;2.20;99.90
31455;DHT22;18084;53.028;8.834;2022-12-07T21:05:17;2.00;99.90
31455;DHT22;18084;53.028;8.834;2022-12-07T21:07:43;2.10;99.90
31455;DHT22;18084;53.028;8.834;2022-12-07T21:10:09;2.20;99.90
31455;DHT22;18084;53.028;8.834;2022-12-07T21:12:34;2.30;99.90
31455;DHT22;18084;53.028;8.834;2022-12-07T21:15:00;2.30;99.90
31455;DHT22;18084;53.028;8.834;2022-12-07T21:17:26;2.60;99.90
31455;DHT22;18084;53.028;8.834;2022-12-07T21:19:51;2.30;99.90
31455;DHT22;18084;53.028;8.834;2022-12-07T21:22:17;2.10;99.90
31455;DHT22;18084;53.028;8.834;2022-12-07T21:24:42;2.30;99.90
31455;DHT22;18084;53.028;8.834;2022-12-07T21:27:08;2.30;99.90
31455;DHT22;18084;53.028;8.834;2022-12-07T21:29:34;2.40;99.90
31455;DHT22;18084;53.028;8.834;2022-12-07T21:32:00;2.40;99.90
31455;DHT22;18084;53.028;8.834;2022-12-07T21:34:26;2.40;99.90
31455;DHT22;18084;53.028;8.834;2022-12-07T21:36:51;3.20;99.90
31455;DHT22;18084;53.028;8.834;2022-12-07T21:39:17;3.50;99.90
31455;DHT22;18084;53.028;8.834;2022-12-07T21:41:43;2.40;99.90
31455;DHT22;18084;53.028;8.834;2022-12-07T21:44:08;2.60;99.90
31455;DHT22;18084;53.028;8.834;2022-12-07T21:46:39;2.60;99.90
31455;DHT22;18084;53.028;8.834;2022-12-07T21:49:11;2.50;99.90
31455;DHT22;18084;53.028;8.834;2022-12-07T21:51:38;2.60;99.90
31455;DHT22;18084;53.028;8.834;2022-12-07T21:54:05;2.60;99.90
31455;DHT22;18084;53.028;8.834;2022-12-07T21:56:38;2.60;99.90
31455;DHT22;18084;53.028;8.834;2022-12-07T21:59:14;2.60;99.90
31455;DHT22;18084;53.028;8.834;2022-12-07T22:01:42;2.60;99.90
31455;DHT22;18084;53.028;8.834;2022-12-07T22:04:15;2.70;99.90
31455;DHT22;18084;53.028;8.834;2022-12-07T22:06:42;3.00;99.90
31455;DHT22;18084;53.028;8.834;2022-12-07T22:09:08;2.60;99.90
31455;DHT22;18084;53.028;8.834;2022-12-07T22:11:34;2.60;99.90
31455;DHT22;18084;53.028;8.834;2022-12-07T22:14:00;2.60;99.90
31455;DHT22;18084;53.028;8.834;2022-12-07T22:16:45;2.60;99.90
31455;DHT22;18084;53.028;8.834;2022-12-07T22:19:11;2.50;99.90
31455;DHT22;18084;53.028;8.834;2022-12-07T22:21:37;2.60;99.90
31455;DHT22;18084;53.028;8.834;2022-12-07T22:24:03;2.40;99.90
31455;DHT22;18084;53.028;8.834;2022-12-07T22:26:30;2.60;99.90
31455;DHT22;18084;53.028;8.834;2022-12-07T22:28:56;2.40;99.90
31455;DHT22;18084;53.028;8.834;2022-12-07T22:31:23;2.50;99.90
31455;DHT22;18084;53.028;8.834;2022-12-07T22:33:49;2.50;99.90
31455;DHT22;18084;53.028;8.834;2022-12-07T22:36:15;2.50;99.90
31455;DHT22;18084;53.028;8.834;2022-12-07T22:38:41;2.50;99.90
31455;DHT22;18084;53.028;8.834;2022-12-07T22:41:28;2.40;99.90
31455;DHT22;18084;53.028;8.834;2022-12-07T22:43:55;2.40;99.90
31455;DHT22;18084;53.028;8.834;2022-12-07T22:46:22;2.50;99.90
31455;DHT22;18084;53.028;8.834;2022-12-07T22:48:48;2.40;99.90
31455;DHT22;18084;53.028;8.834;2022-12-07T22:51:34;2.40;99.90
31455;DHT22;18084;53.028;8.834;2022-12-07T22:54:01;2.40;99.90
31455;DHT22;18084;53.028;8.834;2022-12-07T22:56:28;2.30;99.90
31455;DHT22;18084;53.028;8.834;2022-12-07T22:58:55;2.40;99.90
31455;DHT22;18084;53.028;8.834;2022-12-07T23:01:22;2.30;99.90
31455;DHT22;18084;53.028;8.834;2022-12-07T23:03:48;2.30;99.90
31455;DHT22;18084;53.028;8.834;2022-12-07T23:06:17;2.30;99.90
31455;DHT22;18084;53.028;8.834;2022-12-07T23:08:43;2.30;99.90
31455;DHT22;18084;53.028;8.834;2022-12-07T23:11:11;2.40;99.90
31455;DHT22;18084;53.028;8.834;2022-12-07T23:14:01;2.30;99.90